createdAt,value
2019-03-17T00:00:44.991Z,26.00
2019-03-17T00:03:13.521Z,26.00
2019-03-17T00:05:46.886Z,26.60
2019-03-17T00:08:15.399Z,26.70
2019-03-17T00:10:43.923Z,27.10
2019-03-17T00:13:12.479Z,27.50
2019-03-17T00:15:40.967Z,27.10
2019-03-17T00:18:09.517Z,26.70
2019-03-17T00:20:37.929Z,26.20
2019-03-17T00:23:07.338Z,25.70
2019-03-17T00:25:35.793Z,26.00
2019-03-17T00:28:04.484Z,26.20
2019-03-17T00:30:32.899Z,26.40
2019-03-17T00:33:01.422Z,26.70
2019-03-17T00:35:30.310Z,26.70
2019-03-17T00:37:58.801Z,25.60
2019-03-17T00:40:27.329Z,25.10
2019-03-17T00:42:55.768Z,24.70
2019-03-17T00:45:24.258Z,24.50
2019-03-17T00:47:52.706Z,25.00
2019-03-17T00:50:21.140Z,24.40
2019-03-17T00:52:49.560Z,24.10
2019-03-17T00:55:18.165Z,24.40
2019-03-17T00:57:46.669Z,25.40
2019-03-17T01:00:15.920Z,26.00
2019-03-17T01:02:44.441Z,25.90
2019-03-17T01:05:12.999Z,25.10
2019-03-17T01:07:41.519Z,26.10
2019-03-17T01:10:09.983Z,25.70
2019-03-17T01:12:38.567Z,24.80
2019-03-17T01:15:07.726Z,24.10
2019-03-17T01:17:36.336Z,25.00
2019-03-17T01:20:07.364Z,25.70
2019-03-17T01:22:35.926Z,26.40
2019-03-17T01:25:08.519Z,26.40
2019-03-17T01:27:36.925Z,26.00
2019-03-17T01:30:08.013Z,26.40
2019-03-17T01:32:36.464Z,26.90
2019-03-17T01:35:09.545Z,27.10
2019-03-17T01:37:37.170Z,27.00
2019-03-17T01:40:08.427Z,27.50
2019-03-17T01:42:36.911Z,27.70
2019-03-17T01:45:06.980Z,27.50
2019-03-17T01:47:35.585Z,27.70
2019-03-17T01:50:04.379Z,27.80
2019-03-17T01:52:32.862Z,27.60
2019-03-17T01:55:01.462Z,27.60
2019-03-17T01:59:58.139Z,27.40
2019-03-17T02:04:55.271Z,27.30
2019-03-17T02:07:23.755Z,27.50
2019-03-17T02:12:20.967Z,27.30
2019-03-17T02:14:49.370Z,27.00
2019-03-17T02:17:17.846Z,27.10
2019-03-17T02:19:46.290Z,27.00
2019-03-17T02:22:14.722Z,26.80
2019-03-17T02:24:43.326Z,26.90
2019-03-17T02:27:12.606Z,26.90
2019-03-17T02:29:41.162Z,26.90
2019-03-17T02:32:09.683Z,26.90
2019-03-17T02:34:38.167Z,27.40
2019-03-17T02:37:06.728Z,27.20
2019-03-17T02:39:35.202Z,26.70
2019-03-17T02:42:03.673Z,25.90
2019-03-17T02:44:32.115Z,26.20
2019-03-17T02:47:00.641Z,26.30
2019-03-17T02:49:29.134Z,25.70
2019-03-17T02:51:57.622Z,26.50
2019-03-17T02:54:26.227Z,26.70
2019-03-17T02:56:54.633Z,27.20
2019-03-17T02:59:23.054Z,27.30
2019-03-17T03:01:51.518Z,26.50
2019-03-17T03:04:19.995Z,26.80
2019-03-17T03:06:48.523Z,27.50
2019-03-17T03:09:17.039Z,27.80
2019-03-17T03:11:45.599Z,27.70
2019-03-17T03:14:14.090Z,27.30
2019-03-17T03:16:43.095Z,27.30
2019-03-17T03:19:11.511Z,27.10
2019-03-17T03:21:39.935Z,27.20
2019-03-17T03:24:08.451Z,27.70
2019-03-17T03:26:36.930Z,27.70
2019-03-17T03:29:05.438Z,27.70
2019-03-17T03:31:33.892Z,27.80
2019-03-17T03:34:02.385Z,27.80
2019-03-17T03:36:30.795Z,27.60
2019-03-17T03:38:59.341Z,28.00
2019-03-17T03:41:27.734Z,27.90
2019-03-17T03:43:56.215Z,27.90
2019-03-17T03:46:24.796Z,28.10
2019-03-17T03:48:53.230Z,28.00
2019-03-17T03:51:21.737Z,27.90
2019-03-17T03:53:50.190Z,27.90
2019-03-17T03:56:18.627Z,27.90
2019-03-17T03:58:47.189Z,27.60
2019-03-17T04:01:15.989Z,27.50
2019-03-17T04:03:44.497Z,27.70
2019-03-17T04:06:25.854Z,27.90
2019-03-17T04:08:43.164Z,27.80
2019-03-17T04:11:11.581Z,27.70
2019-03-17T04:13:40.076Z,27.90
2019-03-17T04:16:08.602Z,27.50
2019-03-17T04:18:37.018Z,27.00
2019-03-17T04:21:05.511Z,26.90
2019-03-17T04:23:34.022Z,26.60
2019-03-17T04:26:02.445Z,26.60
2019-03-17T04:28:30.994Z,27.20
2019-03-17T04:31:00.465Z,27.20
2019-03-17T04:33:28.869Z,27.40
2019-03-17T04:35:57.316Z,27.00
2019-03-17T04:38:25.835Z,27.20
2019-03-17T04:40:54.331Z,26.90
2019-03-17T04:43:22.814Z,26.90
2019-03-17T04:45:51.279Z,26.90
2019-03-17T04:48:19.764Z,27.40
2019-03-17T04:50:48.183Z,27.50
2019-03-17T04:53:16.713Z,27.50
2019-03-17T04:55:45.201Z,26.90
2019-03-17T04:58:13.687Z,27.30
2019-03-17T05:00:42.218Z,27.40
2019-03-17T05:03:10.709Z,27.70
2019-03-17T05:05:39.473Z,27.70
2019-03-17T05:08:07.921Z,27.60
2019-03-17T05:10:36.487Z,27.80
2019-03-17T05:13:04.976Z,28.00
2019-03-17T05:15:33.493Z,28.00
2019-03-17T05:18:01.987Z,27.80
2019-03-17T05:20:30.479Z,27.10
2019-03-17T05:22:59.076Z,27.70
2019-03-17T05:25:27.503Z,27.40
2019-03-17T05:27:55.988Z,27.40
2019-03-17T05:30:24.500Z,26.80
2019-03-17T05:32:53.974Z,26.70
2019-03-17T05:35:22.404Z,27.10
2019-03-17T05:37:50.854Z,27.10
2019-03-17T05:40:19.268Z,27.30
2019-03-17T05:42:47.757Z,26.80
2019-03-17T05:47:44.463Z,26.20
2019-03-17T05:50:12.953Z,26.40
2019-03-17T05:52:41.469Z,26.30
2019-03-17T05:55:10.168Z,25.30
2019-03-17T05:57:38.599Z,26.10
2019-03-17T06:02:36.936Z,25.20
2019-03-17T06:05:06.897Z,25.20
2019-03-17T06:07:35.420Z,25.50
2019-03-17T06:10:04.223Z,25.70
2019-03-17T06:12:32.719Z,26.90
2019-03-17T06:15:01.264Z,26.50
2019-03-17T06:17:29.687Z,26.50
2019-03-17T06:19:58.097Z,26.40
2019-03-17T06:22:26.551Z,26.40
2019-03-17T06:27:23.219Z,26.70
2019-03-17T06:29:51.732Z,26.70
2019-03-17T06:32:20.299Z,26.70
2019-03-17T06:34:49.760Z,26.30
2019-03-17T06:37:30.169Z,26.30
2019-03-17T06:39:48.354Z,26.60
2019-03-17T06:42:16.904Z,26.90
2019-03-17T06:44:45.459Z,26.70
2019-03-17T06:47:13.919Z,26.30
2019-03-17T06:49:42.542Z,26.30
2019-03-17T06:52:11.167Z,26.70
2019-03-17T06:54:39.655Z,26.70
2019-03-17T06:57:08.207Z,26.90
2019-03-17T06:59:36.738Z,27.10
2019-03-17T07:02:05.307Z,27.10
2019-03-17T07:04:33.791Z,26.90
2019-03-17T07:07:02.330Z,26.40
2019-03-17T07:09:31.732Z,26.10
2019-03-17T07:12:00.241Z,26.70
2019-03-17T07:14:28.737Z,26.60
2019-03-17T07:16:57.237Z,26.70
2019-03-17T07:19:25.701Z,27.00
2019-03-17T07:21:54.179Z,27.20
2019-03-17T07:24:22.732Z,27.50
2019-03-17T07:26:51.188Z,27.90
2019-03-17T07:29:19.678Z,28.30
2019-03-17T07:31:48.210Z,28.00
2019-03-17T07:34:16.609Z,27.90
2019-03-17T07:36:45.968Z,28.00
2019-03-17T07:39:14.396Z,28.30
2019-03-17T07:41:43.001Z,28.40
2019-03-17T07:44:11.490Z,28.20
2019-03-17T07:46:39.967Z,28.30
2019-03-17T07:49:08.560Z,28.70
2019-03-17T07:51:37.124Z,28.20
2019-03-17T07:54:05.612Z,28.60
2019-03-17T07:56:34.149Z,28.10
2019-03-17T07:59:02.596Z,27.20
2019-03-17T08:01:31.003Z,27.80
2019-03-17T08:03:59.534Z,27.40
2019-03-17T08:06:28.014Z,27.40
2019-03-17T08:08:56.639Z,28.00
2019-03-17T08:11:25.245Z,28.30
2019-03-17T08:13:53.662Z,27.70
2019-03-17T08:16:22.166Z,28.00
2019-03-17T08:18:50.696Z,28.10
2019-03-17T08:21:19.184Z,28.30
2019-03-17T08:23:47.683Z,27.70
2019-03-17T08:26:16.146Z,27.80
2019-03-17T08:28:44.658Z,28.30
2019-03-17T08:31:13.152Z,28.60
2019-03-17T08:33:41.681Z,28.70
2019-03-17T08:36:10.179Z,29.00
2019-03-17T08:38:39.537Z,29.10
2019-03-17T08:41:08.062Z,29.40
2019-03-17T08:43:36.553Z,29.10
2019-03-17T08:46:05.103Z,29.50
2019-03-17T08:48:33.700Z,28.10
2019-03-17T08:51:02.217Z,27.60
2019-03-17T08:53:30.774Z,26.60
2019-03-17T08:55:59.241Z,26.40
2019-03-17T08:58:30.218Z,27.10
2019-03-17T09:00:58.634Z,27.40
2019-03-17T09:03:27.150Z,26.30
2019-03-17T09:05:55.577Z,26.20
2019-03-17T09:08:34.473Z,26.20
2019-03-17T09:10:54.389Z,26.10
2019-03-17T09:13:22.895Z,25.10
2019-03-17T09:15:51.354Z,23.00
2019-03-17T09:18:22.951Z,23.00
2019-03-17T09:20:51.507Z,22.90
2019-03-17T09:23:19.930Z,22.90
2019-03-17T09:25:48.476Z,22.60
2019-03-17T09:28:16.964Z,22.50
2019-03-17T09:30:45.458Z,23.20
2019-03-17T09:33:13.926Z,23.90
2019-03-17T09:35:42.413Z,24.10
2019-03-17T09:38:12.582Z,23.60
2019-03-17T09:40:42.816Z,23.50
2019-03-17T09:43:11.319Z,23.70
2019-03-17T09:45:39.806Z,23.40
2019-03-17T09:48:08.330Z,23.00
2019-03-17T09:50:36.962Z,23.00
2019-03-17T09:53:05.518Z,22.40
2019-03-17T09:55:34.114Z,22.40
2019-03-17T09:58:02.602Z,22.50
2019-03-17T10:00:31.098Z,22.40
2019-03-17T10:02:59.552Z,22.50
2019-03-17T10:05:28.115Z,22.10
2019-03-17T10:07:57.599Z,22.30
2019-03-17T10:10:26.135Z,22.70
2019-03-17T10:12:54.616Z,23.10
2019-03-17T10:15:23.175Z,23.10
2019-03-17T10:17:51.747Z,23.00
2019-03-17T10:20:20.577Z,22.90
2019-03-17T10:22:49.605Z,22.80
2019-03-17T10:25:18.205Z,23.10
2019-03-17T10:27:46.836Z,22.30
2019-03-17T10:30:17.355Z,22.30
2019-03-17T10:32:46.027Z,23.00
2019-03-17T10:35:14.538Z,23.50
2019-03-17T10:40:17.640Z,22.60
2019-03-17T10:42:46.267Z,22.40
2019-03-17T10:45:15.086Z,22.70
2019-03-17T10:47:43.619Z,22.20
2019-03-17T10:50:16.759Z,22.30
2019-03-17T10:52:45.384Z,22.10
2019-03-17T10:55:13.974Z,22.10
2019-03-17T10:57:42.462Z,22.80
2019-03-17T11:00:18.946Z,22.90
2019-03-17T11:02:47.591Z,22.80
2019-03-17T11:05:16.175Z,22.90
2019-03-17T11:07:44.795Z,22.90
2019-03-17T11:10:15.584Z,23.20
2019-03-17T11:12:44.212Z,23.50
2019-03-17T11:15:21.510Z,23.30
2019-03-17T11:18:09.436Z,22.80
2019-03-17T11:20:38.075Z,22.60
2019-03-17T11:23:06.684Z,22.60
2019-03-17T11:25:35.237Z,23.90
2019-03-17T11:28:03.768Z,23.70
2019-03-17T11:30:32.334Z,23.60
2019-03-17T11:33:00.887Z,22.80
2019-03-17T11:35:29.493Z,22.40
2019-03-17T11:37:58.069Z,22.30
2019-03-17T11:40:26.619Z,22.50
2019-03-17T11:42:55.320Z,22.90
2019-03-17T11:45:23.876Z,23.40
2019-03-17T11:47:52.502Z,23.60
2019-03-17T11:50:21.824Z,23.90
2019-03-17T11:52:50.363Z,23.90
2019-03-17T11:55:18.782Z,23.70
2019-03-17T11:57:47.404Z,24.60
2019-03-17T12:00:21.138Z,24.60
2019-03-17T12:02:49.696Z,25.00
2019-03-17T12:05:18.278Z,24.60
2019-03-17T12:07:46.792Z,24.30
2019-03-17T12:10:17.426Z,24.10
2019-03-17T12:12:46.034Z,24.40
2019-03-17T12:15:19.096Z,24.50
2019-03-17T12:17:47.694Z,24.60
2019-03-17T12:20:16.379Z,24.00
2019-03-17T12:22:45.007Z,24.00
2019-03-17T12:25:14.860Z,24.00
2019-03-17T12:27:43.472Z,24.40
2019-03-17T12:30:28.502Z,24.20
2019-03-17T12:32:57.106Z,24.30
2019-03-17T12:35:25.753Z,25.10
2019-03-17T12:37:54.241Z,25.20
2019-03-17T12:40:22.948Z,25.30
2019-03-17T12:42:52.475Z,25.30
2019-03-17T12:45:21.022Z,24.90
2019-03-17T12:47:49.547Z,25.10
2019-03-17T12:50:26.005Z,25.30
2019-03-17T12:52:54.532Z,24.80
2019-03-17T12:55:23.032Z,24.50
2019-03-17T12:57:51.537Z,24.70
2019-03-17T13:00:23.237Z,26.00
2019-03-17T13:02:51.723Z,26.10
2019-03-17T13:05:20.277Z,26.00
2019-03-17T13:07:49.217Z,25.70
2019-03-17T13:10:19.187Z,26.50
2019-03-17T13:12:47.749Z,26.60
2019-03-17T13:15:16.213Z,26.90
2019-03-17T13:17:44.702Z,27.60
2019-03-17T13:20:18.516Z,27.30
2019-03-17T13:22:47.054Z,26.80
2019-03-17T13:25:15.911Z,26.60
2019-03-17T13:27:44.536Z,26.40
2019-03-17T13:30:19.427Z,26.40
2019-03-17T13:32:47.982Z,26.60
2019-03-17T13:35:16.534Z,27.60
2019-03-17T13:37:45.066Z,27.90
2019-03-17T13:40:28.845Z,27.40
2019-03-17T13:42:50.466Z,26.60
2019-03-17T13:45:18.966Z,26.30
2019-03-17T13:47:47.523Z,26.50
2019-03-17T13:50:22.994Z,26.10
2019-03-17T13:52:51.495Z,26.10
2019-03-17T13:55:19.993Z,26.00
2019-03-17T13:58:09.129Z,25.50
2019-03-17T14:00:37.625Z,25.10
2019-03-17T14:03:06.053Z,26.40
2019-03-17T14:05:34.520Z,27.30
2019-03-17T14:08:03.082Z,27.40
2019-03-17T14:10:40.271Z,26.70
2019-03-17T14:13:01.691Z,27.10
2019-03-17T14:15:30.652Z,28.40
2019-03-17T14:17:59.168Z,27.60
2019-03-17T14:20:27.773Z,27.20
2019-03-17T14:22:56.278Z,27.30
2019-03-17T14:25:33.406Z,28.20
2019-03-17T14:28:02.044Z,29.10
2019-03-17T14:30:30.525Z,29.80
2019-03-17T14:32:59.078Z,29.90
2019-03-17T14:35:27.634Z,29.40
2019-03-17T14:37:56.334Z,29.40
2019-03-17T14:40:24.859Z,29.60
2019-03-17T14:42:55.536Z,29.80
2019-03-17T14:45:23.569Z,29.30
2019-03-17T14:47:52.167Z,29.10
2019-03-17T14:50:25.168Z,29.50
2019-03-17T14:52:53.749Z,28.90
2019-03-17T14:55:22.351Z,28.80
2019-03-17T14:57:50.830Z,27.90
2019-03-17T15:00:21.637Z,26.80
2019-03-17T15:02:50.621Z,26.50
2019-03-17T15:05:19.159Z,26.50
2019-03-17T15:07:47.833Z,28.10
2019-03-17T15:10:18.999Z,27.60
2019-03-17T15:12:47.570Z,26.60
2019-03-17T15:15:17.541Z,27.60
2019-03-17T15:17:46.143Z,28.00
2019-03-17T15:20:20.603Z,26.90
2019-03-17T15:22:49.048Z,26.00
2019-03-17T15:25:17.586Z,25.90
2019-03-17T15:27:46.157Z,25.90
2019-03-17T15:30:20.420Z,25.70
2019-03-17T15:32:50.649Z,25.20
2019-03-17T15:35:19.219Z,25.20
2019-03-17T15:37:48.108Z,25.90
2019-03-17T15:40:20.557Z,26.10
2019-03-17T15:42:49.162Z,26.40
2019-03-17T15:45:19.760Z,26.50
2019-03-17T15:47:49.199Z,26.90
2019-03-17T15:50:19.520Z,26.60
2019-03-17T15:52:48.009Z,27.30
2019-03-17T15:55:17.302Z,27.20
2019-03-17T15:57:45.846Z,27.50
2019-03-17T16:00:25.548Z,27.90
2019-03-17T16:02:51.151Z,27.80
2019-03-17T16:05:19.638Z,27.70
2019-03-17T16:07:48.341Z,27.30
2019-03-17T16:10:20.023Z,27.30
2019-03-17T16:12:48.601Z,27.70
2019-03-17T16:15:17.197Z,28.90
2019-03-17T16:17:45.691Z,30.20
2019-03-17T16:20:27.967Z,30.30
2019-03-17T16:22:56.420Z,29.60
2019-03-17T16:25:36.002Z,29.90
2019-03-17T16:28:04.858Z,30.60
2019-03-17T16:30:33.658Z,31.00
2019-03-17T16:33:02.335Z,30.80
2019-03-17T16:35:30.988Z,30.10
2019-03-17T16:37:59.641Z,30.10
2019-03-17T16:40:32.937Z,30.30
2019-03-17T16:43:01.598Z,30.90
2019-03-17T16:45:30.082Z,30.40
2019-03-17T16:47:58.609Z,30.30
2019-03-17T16:50:27.287Z,29.90
2019-03-17T16:52:55.922Z,30.10
2019-03-17T16:55:24.513Z,29.90
2019-03-17T16:57:53.016Z,29.70
2019-03-17T17:00:25.320Z,29.50
2019-03-17T17:02:53.903Z,28.70
2019-03-17T17:05:23.521Z,26.60
2019-03-17T17:07:52.298Z,26.30
2019-03-17T17:10:24.006Z,24.50
2019-03-17T17:12:52.565Z,24.60
2019-03-17T17:15:23.706Z,25.10
2019-03-17T17:17:52.295Z,25.30
2019-03-17T17:20:23.179Z,25.40
2019-03-17T17:22:51.872Z,23.30
2019-03-17T17:25:20.619Z,21.70
2019-03-17T17:27:49.514Z,20.10
2019-03-17T17:32:46.898Z,19.70
2019-03-17T17:35:15.989Z,20.00
2019-03-17T17:37:44.565Z,19.30
2019-03-17T17:40:23.552Z,19.90
2019-03-17T17:42:52.340Z,19.00
2019-03-17T17:52:53.536Z,17.20
2019-03-17T17:55:22.287Z,17.60
2019-03-17T17:57:52.817Z,17.80
2019-03-17T18:00:23.128Z,17.50
2019-03-17T18:02:52.111Z,17.60
2019-03-17T18:05:20.711Z,17.90
2019-03-17T18:07:49.406Z,18.70
2019-03-17T18:10:21.963Z,17.60
2019-03-17T18:12:50.954Z,16.90
2019-03-17T18:15:21.731Z,16.60
2019-03-17T18:17:50.777Z,16.80
2019-03-17T18:20:19.671Z,17.60
2019-03-17T18:22:49.682Z,17.90
2019-03-17T18:25:24.853Z,18.60
2019-03-17T18:27:53.754Z,18.70
2019-03-17T18:30:25.935Z,18.90
2019-03-17T18:32:55.247Z,19.90
2019-03-17T18:35:24.126Z,21.30
2019-03-17T18:37:53.527Z,21.60
2019-03-17T18:40:22.975Z,21.60
2019-03-17T18:42:51.471Z,22.00
2019-03-17T18:45:22.793Z,21.90
2019-03-17T18:47:51.828Z,22.10
2019-03-17T18:50:21.271Z,21.70
2019-03-17T18:52:50.330Z,21.80
2019-03-17T18:55:19.078Z,21.40
2019-03-17T18:57:47.742Z,21.80
2019-03-17T19:00:20.562Z,22.60
2019-03-17T19:02:49.164Z,23.20
2019-03-17T19:05:20.351Z,23.00
2019-03-17T19:07:50.459Z,22.50
2019-03-17T19:10:24.196Z,23.60
2019-03-17T19:12:53.239Z,23.40
2019-03-17T19:15:22.874Z,23.40
2019-03-17T19:17:52.056Z,23.90
2019-03-17T19:20:23.168Z,23.30
2019-03-17T19:22:51.835Z,23.60
2019-03-17T19:25:23.216Z,23.60
2019-03-17T19:27:52.368Z,24.70
2019-03-17T19:30:23.566Z,24.60
2019-03-17T19:32:54.071Z,24.60
2019-03-17T19:35:22.895Z,25.00
2019-03-17T19:37:52.241Z,24.70
2019-03-17T19:40:22.547Z,23.60
2019-03-17T19:42:58.610Z,23.90
2019-03-17T19:45:22.390Z,23.90
2019-03-17T19:47:51.046Z,24.20
2019-03-17T19:50:20.826Z,24.40
2019-03-17T19:52:49.589Z,24.40
2019-03-17T19:55:19.716Z,24.90
2019-03-17T19:58:09.056Z,24.70
2019-03-17T20:00:37.991Z,25.00
2019-03-17T20:03:07.404Z,24.50
2019-03-17T20:05:36.306Z,24.00
2019-03-17T20:08:06.503Z,23.90
2019-03-17T20:10:35.792Z,23.60
2019-03-17T20:13:11.326Z,23.50
2019-03-17T20:15:35.680Z,23.80
2019-03-17T20:18:04.476Z,23.70
2019-03-17T20:20:33.777Z,23.30
2019-03-17T20:23:03.983Z,23.10
2019-03-17T20:25:32.587Z,22.80
2019-03-17T20:28:01.171Z,22.80
2019-03-17T20:30:30.273Z,22.90
2019-03-17T20:32:58.915Z,22.70
2019-03-17T20:35:28.610Z,22.60
2019-03-17T20:37:57.177Z,23.10
2019-03-17T20:40:25.972Z,24.00
2019-03-17T20:42:54.657Z,24.80
2019-03-17T20:45:23.374Z,24.60
2019-03-17T20:47:52.302Z,25.10
2019-03-17T20:50:24.464Z,25.20
2019-03-17T20:52:53.159Z,24.90
2019-03-17T20:55:21.985Z,25.60
2019-03-17T20:57:50.844Z,26.10
2019-03-17T21:00:20.111Z,26.50
2019-03-17T21:02:48.756Z,27.00
2019-03-17T21:05:17.400Z,27.20
2019-03-17T21:07:49.828Z,27.00
2019-03-17T21:10:18.467Z,27.30
2019-03-17T21:12:47.206Z,27.50
2019-03-17T21:15:19.645Z,26.90
2019-03-17T21:17:49.632Z,26.90
2019-03-17T21:20:19.525Z,26.90
2019-03-17T21:22:48.429Z,26.90
2019-03-17T21:25:16.978Z,26.90
2019-03-17T21:27:46.738Z,26.90
2019-03-17T21:30:20.921Z,26.80
2019-03-17T21:32:50.774Z,26.90
2019-03-17T21:35:19.484Z,26.90
2019-03-17T21:37:48.212Z,26.30
2019-03-17T21:40:16.947Z,26.00
2019-03-17T21:42:47.130Z,24.70
2019-03-17T21:45:17.400Z,24.50
2019-03-17T21:47:46.063Z,24.70
2019-03-17T21:50:18.432Z,23.90
2019-03-17T21:52:47.110Z,24.10
2019-03-17T21:55:15.771Z,24.70
2019-03-17T21:57:44.443Z,23.50
2019-03-17T22:00:17.463Z,23.40
2019-03-17T22:02:46.038Z,23.40
2019-03-17T22:05:14.687Z,23.00
2019-03-17T22:07:49.614Z,22.50
2019-03-17T22:10:15.788Z,22.10
2019-03-17T22:12:44.498Z,21.80
2019-03-17T22:15:14.124Z,21.90
2019-03-17T22:17:43.177Z,21.70
2019-03-17T22:20:16.037Z,22.10
2019-03-17T22:22:44.647Z,21.90
2019-03-17T22:25:14.313Z,22.40
2019-03-17T22:27:43.023Z,22.10
2019-03-17T22:30:19.034Z,21.60
2019-03-17T22:32:47.841Z,21.30
2019-03-17T22:35:16.389Z,21.40
2019-03-17T22:37:44.878Z,21.40
2019-03-17T22:40:15.617Z,20.90
2019-03-17T22:42:44.317Z,20.40
2019-03-17T22:45:13.807Z,20.30
2019-03-17T22:47:42.380Z,20.00
2019-03-17T22:50:16.985Z,19.50
2019-03-17T22:52:45.947Z,19.80
2019-03-17T22:55:14.614Z,20.10
2019-03-17T22:57:43.115Z,20.40
2019-03-17T23:00:34.956Z,20.90
2019-03-17T23:03:03.605Z,20.90
2019-03-17T23:05:32.093Z,20.50
2019-03-17T23:08:00.773Z,20.60
2019-03-17T23:10:29.347Z,21.10
2019-03-17T23:12:57.959Z,21.20
2019-03-17T23:15:26.440Z,21.00
2019-03-17T23:17:55.086Z,20.80
2019-03-17T23:20:23.734Z,21.30
2019-03-17T23:22:52.255Z,21.40
2019-03-17T23:25:20.768Z,21.20
2019-03-17T23:27:49.352Z,21.80
2019-03-17T23:30:21.807Z,21.80
2019-03-17T23:32:50.291Z,21.80
2019-03-17T23:35:18.786Z,21.30
2019-03-17T23:37:47.398Z,21.70
2019-03-17T23:40:16.868Z,20.50
2019-03-17T23:42:45.425Z,20.40
2019-03-17T23:45:14.027Z,20.50
2019-03-17T23:47:42.644Z,21.20
2019-03-17T23:50:13.404Z,20.40
2019-03-17T23:52:42.017Z,20.70
2019-03-17T23:55:12.001Z,21.90
2019-03-17T23:57:40.551Z,21.50
